createdAt,value
2019-02-21T00:01:03.945Z,99.90
2019-02-21T00:03:33.262Z,99.90
2019-02-21T00:06:02.564Z,99.90
2019-02-21T00:08:32.305Z,99.90
2019-02-21T00:11:01.607Z,99.90
2019-02-21T00:13:30.896Z,99.90
2019-02-21T00:16:00.184Z,99.90
2019-02-21T00:18:29.555Z,99.90
2019-02-21T00:20:58.848Z,99.90
2019-02-21T00:23:28.225Z,99.90
2019-02-21T00:25:57.576Z,99.90
2019-02-21T00:28:26.989Z,99.90
2019-02-21T00:30:56.285Z,99.90
2019-02-21T00:33:25.884Z,99.90
2019-02-21T00:35:55.193Z,99.90
2019-02-21T00:38:25.561Z,99.90
2019-02-21T00:40:54.873Z,99.90
2019-02-21T00:43:24.499Z,99.90
2019-02-21T00:45:54.673Z,99.90
2019-02-21T00:48:24.530Z,99.90
2019-02-21T00:50:53.908Z,99.90
2019-02-21T00:53:23.201Z,99.90
2019-02-21T00:55:52.525Z,99.90
2019-02-21T00:58:21.817Z,99.90
2019-02-21T01:00:51.128Z,99.90
2019-02-21T01:03:20.434Z,99.90
2019-02-21T01:05:49.770Z,99.90
2019-02-21T01:08:19.048Z,99.90
2019-02-21T01:10:48.353Z,99.90
2019-02-21T01:13:17.755Z,99.90
2019-02-21T01:15:47.118Z,99.90
2019-02-21T01:18:16.516Z,99.90
2019-02-21T01:20:45.923Z,99.90
2019-02-21T01:23:15.239Z,99.90
2019-02-21T01:25:44.533Z,99.90
2019-02-21T01:28:13.880Z,99.90
2019-02-21T01:30:43.285Z,99.90
2019-02-21T01:33:12.690Z,99.90
2019-02-21T01:35:42.051Z,99.90
2019-02-21T01:38:11.397Z,99.90
2019-02-21T01:40:41.045Z,99.90
2019-02-21T01:43:10.377Z,99.90
2019-02-21T01:45:39.733Z,99.90
2019-02-21T01:48:09.080Z,99.90
2019-02-21T01:50:38.718Z,99.90
2019-02-21T01:53:08.282Z,99.90
2019-02-21T01:55:37.742Z,99.90
2019-02-21T01:58:07.045Z,99.90
2019-02-21T02:00:36.352Z,99.90
2019-02-21T02:03:05.671Z,99.90
2019-02-21T02:05:34.974Z,99.90
2019-02-21T02:08:04.271Z,99.90
2019-02-21T02:10:33.586Z,99.90
2019-02-21T02:13:02.905Z,99.90
2019-02-21T02:15:32.766Z,99.90
2019-02-21T02:18:02.060Z,99.90
2019-02-21T02:20:31.423Z,99.90
2019-02-21T02:23:01.718Z,99.90
2019-02-21T02:25:31.380Z,99.90
2019-02-21T02:28:01.075Z,99.90
2019-02-21T02:30:30.470Z,99.90
2019-02-21T02:32:59.859Z,99.90
2019-02-21T02:35:29.158Z,99.90
2019-02-21T02:37:58.776Z,99.90
2019-02-21T02:40:28.178Z,99.90
2019-02-21T02:42:57.515Z,99.90
2019-02-21T02:45:26.856Z,99.90
2019-02-21T02:47:56.213Z,99.90
2019-02-21T02:50:25.545Z,99.90
2019-02-21T02:52:54.868Z,99.90
2019-02-21T02:55:25.094Z,99.90
2019-02-21T02:57:54.773Z,99.90
2019-02-21T03:00:24.081Z,99.90
2019-02-21T03:02:53.449Z,99.90
2019-02-21T03:05:23.210Z,99.90
2019-02-21T03:07:52.529Z,99.90
2019-02-21T03:10:21.928Z,99.90
2019-02-21T03:12:51.270Z,99.90
2019-02-21T03:15:20.653Z,99.90
2019-02-21T03:17:50.034Z,99.90
2019-02-21T03:20:19.338Z,99.90
2019-02-21T03:22:48.719Z,99.90
2019-02-21T03:25:18.020Z,99.90
2019-02-21T03:27:47.334Z,99.90
2019-02-21T03:30:16.728Z,99.90
2019-02-21T03:32:46.051Z,99.90
2019-02-21T03:35:15.430Z,99.90
2019-02-21T03:37:44.740Z,99.90
2019-02-21T03:40:14.124Z,99.90
2019-02-21T03:42:43.424Z,99.90
2019-02-21T03:45:12.864Z,99.90
2019-02-21T03:47:42.212Z,99.90
2019-02-21T03:50:11.614Z,99.90
2019-02-21T03:52:40.984Z,99.90
2019-02-21T03:55:10.298Z,99.90
2019-02-21T03:57:39.608Z,99.90
2019-02-21T04:00:09.064Z,99.90
2019-02-21T04:02:38.365Z,99.90
2019-02-21T04:05:07.691Z,99.90
2019-02-21T04:07:36.980Z,99.90
2019-02-21T04:10:06.523Z,99.90
2019-02-21T04:12:35.890Z,99.90
2019-02-21T04:15:05.631Z,99.90
2019-02-21T04:17:34.930Z,99.90
2019-02-21T04:20:04.313Z,99.90
2019-02-21T04:22:33.622Z,99.90
2019-02-21T04:25:03.018Z,99.90
2019-02-21T04:27:32.360Z,99.90
2019-02-21T04:30:01.693Z,99.90
2019-02-21T04:32:30.985Z,99.90
2019-02-21T04:35:00.382Z,99.90
2019-02-21T04:37:29.698Z,99.90
2019-02-21T04:39:59.080Z,99.90
2019-02-21T04:42:28.378Z,99.90
2019-02-21T04:44:57.676Z,99.90
2019-02-21T04:47:26.981Z,99.90
2019-02-21T04:49:56.571Z,99.90
2019-02-21T04:52:25.937Z,99.90
2019-02-21T04:54:55.301Z,99.90
2019-02-21T04:57:24.618Z,99.90
2019-02-21T04:59:53.901Z,99.90
2019-02-21T05:02:28.966Z,99.90
2019-02-21T05:04:54.248Z,99.90
2019-02-21T05:07:23.674Z,99.90
2019-02-21T05:09:58.114Z,99.90
2019-02-21T05:12:24.028Z,99.90
2019-02-21T05:14:53.322Z,99.90
2019-02-21T05:17:22.651Z,99.90
2019-02-21T05:19:51.992Z,99.90
2019-02-21T05:22:21.321Z,99.90
2019-02-21T05:24:50.621Z,99.90
2019-02-21T05:27:23.577Z,99.90
2019-02-21T05:29:52.864Z,99.90
2019-02-21T05:32:40.189Z,99.90
2019-02-21T05:35:34.566Z,99.90
2019-02-21T05:38:20.120Z,99.90
2019-02-21T05:41:20.714Z,99.90
2019-02-21T05:44:09.017Z,99.90
2019-02-21T05:46:45.923Z,99.90
2019-02-21T05:49:33.341Z,99.90
2019-02-21T05:52:21.612Z,99.90
2019-02-21T05:55:06.877Z,99.90
2019-02-21T05:57:52.806Z,99.90
2019-02-21T06:00:40.146Z,99.90
2019-02-21T06:03:14.399Z,99.90
2019-02-21T06:05:54.045Z,99.90
2019-02-21T06:08:44.110Z,99.90
2019-02-21T06:11:28.081Z,99.90
2019-02-21T06:14:22.460Z,99.90
2019-02-21T06:17:04.628Z,99.90
2019-02-21T06:19:52.877Z,99.90
2019-02-21T06:22:50.232Z,99.90
2019-02-21T06:25:53.078Z,99.90
2019-02-21T06:28:46.357Z,99.90
2019-02-21T06:31:18.627Z,99.90
2019-02-21T06:33:49.510Z,99.90
2019-02-21T06:36:19.054Z,99.90
2019-02-21T06:38:48.445Z,99.90
2019-02-21T06:41:17.765Z,99.90
2019-02-21T06:43:47.101Z,99.90
2019-02-21T06:46:16.401Z,99.90
2019-02-21T06:48:45.754Z,99.90
2019-02-21T06:51:15.059Z,99.90
2019-02-21T06:53:44.383Z,99.90
2019-02-21T06:56:13.671Z,99.90
2019-02-21T06:58:42.955Z,99.90
2019-02-21T07:01:12.268Z,99.90
2019-02-21T07:03:41.605Z,99.90
2019-02-21T07:06:10.903Z,99.90
2019-02-21T07:08:40.328Z,99.90
2019-02-21T07:11:09.707Z,99.90
2019-02-21T07:13:38.995Z,99.90
2019-02-21T07:16:08.293Z,99.90
2019-02-21T07:18:37.628Z,99.90
2019-02-21T07:21:06.927Z,99.90
2019-02-21T07:23:43.405Z,99.90
2019-02-21T07:26:13.049Z,99.90
2019-02-21T07:28:42.346Z,99.90
2019-02-21T07:31:11.652Z,99.90
2019-02-21T07:33:40.988Z,99.90
2019-02-21T07:36:11.051Z,99.90
2019-02-21T07:38:40.592Z,99.90
2019-02-21T07:41:10.007Z,99.90
2019-02-21T07:43:39.594Z,99.90
2019-02-21T07:46:08.961Z,99.90
2019-02-21T07:48:38.320Z,99.90
2019-02-21T07:51:07.641Z,99.90
2019-02-21T07:53:36.947Z,99.90
2019-02-21T07:56:06.266Z,99.90
2019-02-21T07:58:35.669Z,99.90
2019-02-21T08:01:05.047Z,99.90
2019-02-21T08:03:43.777Z,99.90
2019-02-21T08:06:05.426Z,99.90
2019-02-21T08:08:34.724Z,99.90
2019-02-21T08:11:04.059Z,99.90
2019-02-21T08:13:33.350Z,99.90
2019-02-21T08:16:02.652Z,99.90
2019-02-21T08:18:31.983Z,99.90
2019-02-21T08:21:01.283Z,99.90
2019-02-21T08:23:32.355Z,99.90
2019-02-21T08:26:01.650Z,99.90
2019-02-21T08:28:31.035Z,99.90
2019-02-21T08:31:00.377Z,99.90
2019-02-21T08:33:32.797Z,99.90
2019-02-21T08:36:02.116Z,99.90
2019-02-21T08:38:31.423Z,99.90
2019-02-21T08:41:00.746Z,99.90
2019-02-21T08:43:30.109Z,99.90
2019-02-21T08:45:59.530Z,99.90
2019-02-21T08:48:28.824Z,99.90
2019-02-21T08:50:58.131Z,99.90
2019-02-21T08:53:28.286Z,99.90
2019-02-21T08:55:57.729Z,99.90
2019-02-21T08:58:27.076Z,99.90
2019-02-21T09:00:56.415Z,99.90
2019-02-21T09:03:25.736Z,99.90
2019-02-21T09:05:55.056Z,99.90
2019-02-21T09:08:33.107Z,99.90
2019-02-21T09:10:55.469Z,99.90
2019-02-21T09:13:24.818Z,99.90
2019-02-21T09:15:55.886Z,99.90
2019-02-21T09:18:25.154Z,99.90
2019-02-21T09:20:54.480Z,99.90
2019-02-21T09:23:23.802Z,99.90
2019-02-21T09:25:53.100Z,99.90
2019-02-21T09:28:22.478Z,99.90
2019-02-21T09:30:51.771Z,99.90
2019-02-21T09:33:21.615Z,99.90
2019-02-21T09:35:51.198Z,99.90
2019-02-21T09:38:20.513Z,99.90
2019-02-21T09:40:49.802Z,99.90
2019-02-21T09:43:19.137Z,99.90
2019-02-21T09:45:48.426Z,99.90
2019-02-21T09:48:18.177Z,99.90
2019-02-21T09:50:47.486Z,99.90
2019-02-21T09:53:16.817Z,99.90
2019-02-21T09:55:46.187Z,99.90
2019-02-21T09:58:15.750Z,99.90
2019-02-21T10:00:45.073Z,99.90
2019-02-21T10:03:14.407Z,99.90
2019-02-21T10:05:43.760Z,99.90
2019-02-21T10:08:13.072Z,99.90
2019-02-21T10:10:42.407Z,99.90
2019-02-21T10:13:13.216Z,99.90
2019-02-21T10:15:43.043Z,99.90
2019-02-21T10:18:12.369Z,99.90
2019-02-21T10:20:41.764Z,99.90
2019-02-21T10:23:11.075Z,99.90
2019-02-21T10:25:40.445Z,99.90
2019-02-21T10:28:10.294Z,99.90
2019-02-21T10:30:41.209Z,99.90
2019-02-21T10:33:11.062Z,99.90
2019-02-21T10:35:40.998Z,99.90
2019-02-21T10:38:10.325Z,99.90
2019-02-21T10:40:39.641Z,99.90
2019-02-21T10:43:09.378Z,99.90
2019-02-21T10:45:47.426Z,99.90
2019-02-21T10:48:10.507Z,99.90
2019-02-21T10:50:39.833Z,99.90
2019-02-21T10:53:10.163Z,99.90
2019-02-21T10:55:39.473Z,96.60
2019-02-21T10:58:08.774Z,90.80
2019-02-21T11:00:38.189Z,90.80
2019-02-21T11:03:07.562Z,95.30
2019-02-21T11:05:36.954Z,99.10
2019-02-21T11:08:06.744Z,99.90
2019-02-21T11:10:36.114Z,99.90
2019-02-21T11:13:05.430Z,99.90
2019-02-21T11:15:34.808Z,99.90
2019-02-21T11:18:04.590Z,99.90
2019-02-21T11:20:33.927Z,99.90
2019-02-21T11:23:03.235Z,99.90
2019-02-21T11:25:32.544Z,99.90
2019-02-21T11:28:01.845Z,99.90
2019-02-21T11:30:31.263Z,99.90
2019-02-21T11:33:00.542Z,99.90
2019-02-21T11:35:30.164Z,91.00
2019-02-21T11:38:00.867Z,78.80
2019-02-21T11:40:30.364Z,75.00
2019-02-21T11:43:02.430Z,73.50
2019-02-21T11:45:31.945Z,72.50
2019-02-21T11:48:02.205Z,71.80
2019-02-21T11:50:32.399Z,73.10
2019-02-21T11:53:02.054Z,73.80
2019-02-21T11:55:31.803Z,76.10
2019-02-21T11:58:01.091Z,76.90
2019-02-21T12:00:30.393Z,78.10
2019-02-21T12:03:00.248Z,80.40
2019-02-21T12:05:31.872Z,79.10
2019-02-21T12:08:00.594Z,77.50
2019-02-21T12:10:29.984Z,77.60
2019-02-21T12:12:59.357Z,79.20
2019-02-21T12:15:28.727Z,80.60
2019-02-21T12:17:58.036Z,82.40
2019-02-21T12:20:27.402Z,83.60
2019-02-21T12:22:56.748Z,85.50
2019-02-21T12:25:26.066Z,86.50
2019-02-21T12:27:55.417Z,82.40
2019-02-21T12:30:25.612Z,76.70
2019-02-21T12:32:54.935Z,71.90
2019-02-21T12:35:29.544Z,70.60
2019-02-21T12:37:55.292Z,73.20
2019-02-21T12:40:24.599Z,71.40
2019-02-21T12:42:53.968Z,72.20
2019-02-21T12:45:23.352Z,75.00
2019-02-21T12:47:54.104Z,74.10
2019-02-21T12:50:23.713Z,76.80
2019-02-21T12:52:53.041Z,79.60
2019-02-21T12:55:29.288Z,75.70
2019-02-21T12:57:53.416Z,74.60
2019-02-21T13:00:23.258Z,73.40
2019-02-21T13:02:52.601Z,76.50
2019-02-21T13:05:23.048Z,82.10
2019-02-21T13:07:52.777Z,84.20
2019-02-21T13:10:22.515Z,83.40
2019-02-21T13:12:51.918Z,83.60
2019-02-21T13:15:21.902Z,84.20
2019-02-21T13:17:51.319Z,84.00
2019-02-21T13:20:20.641Z,84.50
2019-02-21T13:22:52.430Z,86.00
2019-02-21T13:25:21.770Z,90.20
2019-02-21T13:27:51.171Z,94.20
2019-02-21T13:30:20.493Z,96.60
2019-02-21T13:32:50.374Z,97.40
2019-02-21T13:35:19.775Z,96.90
2019-02-21T13:37:51.221Z,97.20
2019-02-21T13:40:21.638Z,98.50
2019-02-21T13:42:51.049Z,99.30
2019-02-21T13:45:20.786Z,99.80
2019-02-21T13:47:50.156Z,99.90
2019-02-21T13:50:19.593Z,99.90
2019-02-21T13:52:49.438Z,99.90
2019-02-21T13:55:18.738Z,99.90
2019-02-21T13:57:48.163Z,99.90
2019-02-21T14:00:19.564Z,99.90
2019-02-21T14:02:50.283Z,99.90
2019-02-21T14:05:20.181Z,99.90
2019-02-21T14:07:49.672Z,99.90
2019-02-21T14:10:19.355Z,99.90
2019-02-21T14:12:49.188Z,99.90
2019-02-21T14:15:20.858Z,99.90
2019-02-21T14:17:50.788Z,99.90
2019-02-21T14:20:21.438Z,99.90
2019-02-21T14:22:51.409Z,99.90
2019-02-21T14:25:20.850Z,99.90
2019-02-21T14:27:50.248Z,99.90
2019-02-21T14:30:19.677Z,99.90
2019-02-21T14:32:49.044Z,99.90
2019-02-21T14:35:18.452Z,99.90
2019-02-21T14:37:47.827Z,99.90
2019-02-21T14:40:17.268Z,99.90
2019-02-21T14:42:46.635Z,99.90
2019-02-21T14:45:17.215Z,99.90
2019-02-21T14:47:46.567Z,99.90
2019-02-21T14:50:15.996Z,99.90
2019-02-21T14:52:45.615Z,99.90
2019-02-21T14:55:15.251Z,99.90
2019-02-21T14:57:44.730Z,99.90
2019-02-21T15:00:17.352Z,99.90
2019-02-21T15:02:46.804Z,99.90
2019-02-21T15:05:16.252Z,99.90
2019-02-21T15:07:45.559Z,99.90
2019-02-21T15:10:16.175Z,99.90
2019-02-21T15:12:46.730Z,99.90
2019-02-21T15:15:16.985Z,99.90
2019-02-21T15:17:46.266Z,99.90
2019-02-21T15:20:16.307Z,99.90
2019-02-21T15:22:48.067Z,99.90
2019-02-21T15:25:17.383Z,99.90
2019-02-21T15:27:46.802Z,99.90
2019-02-21T15:30:17.878Z,99.90
2019-02-21T15:32:47.310Z,99.90
2019-02-21T15:35:19.303Z,99.90
2019-02-21T15:37:47.754Z,99.90
2019-02-21T15:40:18.106Z,99.90
2019-02-21T15:42:47.438Z,99.90
2019-02-21T15:45:23.610Z,99.90
2019-02-21T15:47:49.747Z,99.90
2019-02-21T15:50:20.127Z,99.90
2019-02-21T15:52:58.853Z,99.90
2019-02-21T15:55:28.503Z,99.90
2019-02-21T15:58:03.964Z,99.90
2019-02-21T16:00:29.353Z,99.90
2019-02-21T16:02:58.943Z,99.90
2019-02-21T16:05:28.273Z,99.90
2019-02-21T16:07:57.611Z,99.90
2019-02-21T16:10:27.289Z,99.90
2019-02-21T16:12:57.249Z,99.90
2019-02-21T16:15:27.027Z,99.90
2019-02-21T16:17:56.872Z,99.90
2019-02-21T16:20:26.295Z,99.90
2019-02-21T16:22:55.689Z,99.90
2019-02-21T16:25:29.823Z,99.90
2019-02-21T16:27:59.142Z,99.90
2019-02-21T16:30:28.428Z,99.90
2019-02-21T16:32:58.174Z,99.90
2019-02-21T16:35:27.571Z,99.90
2019-02-21T16:37:56.927Z,99.90
2019-02-21T16:40:26.283Z,99.90
2019-02-21T16:42:55.591Z,99.90
2019-02-21T16:45:24.889Z,99.90
2019-02-21T16:47:54.488Z,99.90
2019-02-21T16:50:29.698Z,99.90
2019-02-21T16:52:54.872Z,99.90
2019-02-21T16:55:24.219Z,99.90
2019-02-21T16:57:53.513Z,99.90
2019-02-21T17:00:22.919Z,99.90
2019-02-21T17:02:52.268Z,99.90
2019-02-21T17:05:21.608Z,99.90
2019-02-21T17:07:50.921Z,99.90
2019-02-21T17:10:20.261Z,99.90
2019-02-21T17:12:49.585Z,99.90
2019-02-21T17:15:18.992Z,99.90
2019-02-21T17:17:48.334Z,99.90
2019-02-21T17:20:17.704Z,99.90
2019-02-21T17:22:47.058Z,99.90
2019-02-21T17:25:16.510Z,99.90
2019-02-21T17:27:45.827Z,99.90
2019-02-21T17:30:18.553Z,99.90
2019-02-21T17:32:47.858Z,99.90
2019-02-21T17:35:17.227Z,99.90
2019-02-21T17:37:46.555Z,99.90
2019-02-21T17:40:17.764Z,99.90
2019-02-21T17:42:47.206Z,99.90
2019-02-21T17:45:16.529Z,99.90
2019-02-21T17:47:45.849Z,99.90
2019-02-21T17:50:15.856Z,99.90
2019-02-21T17:52:45.253Z,99.90
2019-02-21T17:55:14.923Z,99.90
2019-02-21T17:57:44.424Z,99.90
2019-02-21T18:00:17.226Z,99.90
2019-02-21T18:02:46.941Z,99.90
2019-02-21T18:05:16.309Z,99.90
2019-02-21T18:07:45.685Z,99.90
2019-02-21T18:10:15.107Z,99.90
2019-02-21T18:12:44.515Z,99.90
2019-02-21T18:15:14.051Z,99.90
2019-02-21T18:17:43.455Z,99.90
2019-02-21T18:20:13.114Z,99.90
2019-02-21T18:22:42.452Z,99.90
2019-02-21T18:25:18.144Z,99.90
2019-02-21T18:27:47.468Z,99.90
2019-02-21T18:30:17.377Z,99.90
2019-02-21T18:32:46.922Z,99.90
2019-02-21T18:35:16.293Z,99.90
2019-02-21T18:37:47.820Z,99.90
2019-02-21T18:40:20.347Z,99.90
2019-02-21T18:42:48.089Z,99.90
2019-02-21T18:45:17.413Z,99.90
2019-02-21T18:47:46.819Z,99.90
2019-02-21T18:50:16.337Z,99.90
2019-02-21T18:52:45.638Z,99.90
2019-02-21T18:55:15.075Z,99.90
2019-02-21T18:57:44.364Z,99.90
2019-02-21T19:00:14.979Z,99.90
2019-02-21T19:02:44.281Z,99.90
2019-02-21T19:05:13.598Z,99.90
2019-02-21T19:07:42.873Z,99.90
2019-02-21T19:10:13.792Z,99.90
2019-02-21T19:12:43.097Z,99.90
2019-02-21T19:15:13.193Z,99.90
2019-02-21T19:17:42.565Z,99.90
2019-02-21T19:20:12.602Z,99.90
2019-02-21T19:22:42.005Z,99.90
2019-02-21T19:25:11.507Z,99.90
2019-02-21T19:27:40.809Z,99.90
2019-02-21T19:30:14.022Z,99.90
2019-02-21T19:32:43.435Z,99.90
2019-02-21T19:35:12.752Z,99.90
2019-02-21T19:37:42.047Z,99.90
2019-02-21T19:40:11.369Z,99.90
2019-02-21T19:42:40.750Z,99.90
2019-02-21T19:45:10.136Z,99.90
2019-02-21T19:47:39.475Z,99.90
2019-02-21T19:50:08.847Z,99.90
2019-02-21T19:52:38.187Z,99.90
2019-02-21T19:55:07.512Z,99.90
2019-02-21T19:57:36.847Z,99.90
2019-02-21T20:00:07.541Z,99.90
2019-02-21T20:02:36.845Z,99.90
2019-02-21T20:05:06.644Z,99.90
2019-02-21T20:07:36.121Z,99.90
2019-02-21T20:10:06.041Z,99.90
2019-02-21T20:12:35.367Z,99.90
2019-02-21T20:15:04.994Z,99.90
2019-02-21T20:17:34.315Z,99.90
2019-02-21T20:20:03.767Z,99.90
2019-02-21T20:22:33.114Z,99.90
2019-02-21T20:25:02.426Z,99.90
2019-02-21T20:27:31.810Z,99.90
2019-02-21T20:30:01.163Z,99.90
2019-02-21T20:32:30.592Z,99.90
2019-02-21T20:34:59.930Z,99.90
2019-02-21T20:37:29.237Z,99.90
2019-02-21T20:39:58.609Z,99.90
2019-02-21T20:42:27.912Z,99.90
2019-02-21T20:44:57.247Z,99.90
2019-02-21T20:47:26.551Z,99.90
2019-02-21T20:49:55.851Z,99.90
2019-02-21T20:52:25.224Z,99.90
2019-02-21T20:54:54.568Z,99.90
2019-02-21T20:57:23.920Z,99.90
2019-02-21T20:59:53.244Z,99.90
2019-02-21T21:02:22.833Z,99.90
2019-02-21T21:04:52.145Z,99.90
2019-02-21T21:07:25.096Z,99.90
2019-02-21T21:09:52.584Z,99.90
2019-02-21T21:12:21.898Z,99.90
2019-02-21T21:14:51.244Z,99.90
2019-02-21T21:17:20.561Z,99.90
2019-02-21T21:19:49.849Z,99.90
2019-02-21T21:22:19.193Z,99.90
2019-02-21T21:24:48.493Z,99.90
2019-02-21T21:27:17.998Z,99.90
2019-02-21T21:29:47.293Z,99.90
2019-02-21T21:32:16.621Z,99.90
2019-02-21T21:34:45.912Z,99.90
2019-02-21T21:37:15.228Z,99.90
2019-02-21T21:39:44.586Z,99.90
2019-02-21T21:42:13.940Z,99.90
2019-02-21T21:44:43.304Z,99.90
2019-02-21T21:47:12.665Z,99.90
2019-02-21T21:49:41.970Z,99.90
2019-02-21T21:52:11.275Z,99.90
2019-02-21T21:54:40.613Z,99.90
2019-02-21T21:57:09.989Z,99.90
2019-02-21T21:59:39.310Z,99.90
2019-02-21T22:02:08.605Z,99.90
2019-02-21T22:04:37.910Z,99.90
2019-02-21T22:07:07.205Z,99.90
2019-02-21T22:09:36.505Z,99.90
2019-02-21T22:12:05.824Z,99.90
2019-02-21T22:14:35.198Z,99.90
2019-02-21T22:17:04.526Z,99.90
2019-02-21T22:19:33.837Z,99.90
2019-02-21T22:22:03.152Z,99.90
2019-02-21T22:24:32.458Z,99.90
2019-02-21T22:27:01.765Z,99.90
2019-02-21T22:29:31.074Z,99.90
2019-02-21T22:32:00.397Z,99.90
2019-02-21T22:34:29.711Z,99.90
2019-02-21T22:36:59.024Z,99.90
2019-02-21T22:39:28.318Z,99.90
2019-02-21T22:41:57.718Z,99.90
2019-02-21T22:44:27.026Z,99.90
2019-02-21T22:46:56.417Z,99.90
2019-02-21T22:49:25.795Z,99.90
2019-02-21T22:51:55.117Z,99.90
2019-02-21T22:54:24.441Z,99.90
2019-02-21T22:56:53.754Z,99.90
2019-02-21T22:59:23.055Z,99.90
2019-02-21T23:01:53.698Z,99.90
2019-02-21T23:04:50.734Z,99.90
2019-02-21T23:07:33.691Z,99.90
2019-02-21T23:10:02.979Z,99.90
2019-02-21T23:12:32.312Z,99.90
2019-02-21T23:15:01.597Z,99.90
2019-02-21T23:17:30.905Z,99.90
2019-02-21T23:20:00.365Z,99.90
2019-02-21T23:22:29.823Z,99.90
2019-02-21T23:24:59.124Z,99.90
2019-02-21T23:27:28.431Z,99.90
2019-02-21T23:29:57.725Z,99.90
2019-02-21T23:32:27.055Z,99.90
2019-02-21T23:34:58.363Z,99.90
2019-02-21T23:37:27.680Z,99.90
2019-02-21T23:39:56.988Z,99.90
2019-02-21T23:42:26.288Z,99.90
2019-02-21T23:44:55.758Z,99.90
2019-02-21T23:47:25.089Z,99.90
2019-02-21T23:49:54.384Z,99.90
2019-02-21T23:52:23.697Z,99.90
2019-02-21T23:54:53.015Z,99.90
2019-02-21T23:57:22.314Z,99.90
2019-02-21T23:59:51.715Z,99.90
